Time;durP1;ratioP1;P1;durP2;ratioP2;P2;SDS_P1;SDS_P2;PMS_P1;PMS_P2;Temp;Humidity;BMP_temperature;BMP_pressure;BME280_temperature;BME280_humidity;BME280_pressure;Samples;Min_cycle;Max_cycle;Signal;HPM_P1;HPM_P2
2022/09/09 00:02:05;;;;;;;28.30;19.13;;;16.50;99.90;;;;;;4405457;28;660279;-69
2022/09/09 00:04:59;;;;;;;25.53;17.67;;;16.50;99.90;;;;;;4382123;28;660313;-71
2022/09/09 00:07:49;;;;;;;26.33;16.83;;;16.50;99.90;;;;;;4383145;28;659592;-70
2022/09/09 00:10:39;;;;;;;27.27;17.33;;;16.50;99.90;;;;;;4379970;28;659656;-71
2022/09/09 00:13:29;;;;;;;21.10;14.03;;;16.50;99.90;;;;;;4383154;28;660426;-71
2022/09/09 00:16:18;;;;;;;27.17;16.07;;;16.40;99.90;;;;;;4383513;28;659631;-70
2022/09/09 00:19:08;;;;;;;25.33;16.97;;;16.50;99.90;;;;;;4382213;28;660158;-71
2022/09/09 00:22:02;;;;;;;27.03;17.63;;;16.40;99.90;;;;;;4390858;28;660300;-70
2022/09/09 00:24:53;;;;;;;23.37;15.77;;;16.40;99.90;;;;;;4382529;28;660159;-70
2022/09/09 00:27:42;;;;;;;24.67;17.20;;;16.50;99.90;;;;;;4367584;28;660129;-69
2022/09/09 00:30:32;;;;;;;25.80;16.93;;;16.40;99.90;;;;;;4400204;28;659877;-71
2022/09/09 00:33:22;;;;;;;24.20;17.17;;;16.40;99.90;;;;;;4379793;28;660660;-71
2022/09/09 00:36:13;;;;;;;25.63;17.73;;;16.40;99.90;;;;;;4379333;28;660058;-71
2022/09/09 00:39:01;;;;;;;30.23;18.63;;;16.40;99.90;;;;;;4382523;28;659536;-69
2022/09/09 00:41:56;;;;;;;32.33;19.87;;;16.40;99.90;;;;;;4391037;28;661078;-71
2022/09/09 00:44:52;;;;;;;25.43;17.50;;;16.40;99.90;;;;;;4380325;28;660109;-71
2022/09/09 00:47:45;;;;;;;28.13;18.83;;;16.40;99.90;;;;;;4378307;28;660318;-71
2022/09/09 00:50:45;;;;;;;25.17;17.30;;;16.30;99.90;;;;;;4378832;28;660223;-69
2022/09/09 00:53:37;;;;;;;28.17;18.67;;;16.40;99.90;;;;;;4355365;28;660186;-69
2022/09/09 00:56:26;;;;;;;30.23;18.37;;;16.40;99.90;;;;;;4379255;28;660085;-71
2022/09/09 00:59:20;;;;;;;31.07;18.03;;;16.30;99.90;;;;;;4385020;28;659787;-70
2022/09/09 01:02:09;;;;;;;37.47;21.57;;;16.40;99.90;;;;;;4354281;28;659932;-71
2022/09/09 01:04:59;;;;;;;36.27;22.83;;;16.20;99.90;;;;;;4383870;28;659808;-71
2022/09/09 01:07:47;;;;;;;34.43;22.13;;;16.30;99.90;;;;;;4382500;28;659717;-71
2022/09/09 01:10:41;;;;;;;33.50;20.50;;;16.30;99.90;;;;;;4405163;28;659930;-70
2022/09/09 01:13:30;;;;;;;30.43;17.73;;;16.30;99.90;;;;;;4381690;28;660270;-71
2022/09/09 01:16:19;;;;;;;34.80;21.40;;;16.30;99.90;;;;;;4379199;28;661891;-71
2022/09/09 01:19:06;;;;;;;33.47;21.13;;;16.30;99.90;;;;;;4378855;28;660454;-71
2022/09/09 01:21:57;;;;;;;33.53;20.67;;;16.20;99.90;;;;;;4401371;28;661020;-71
2022/09/09 01:25:25;;;;;;;37.00;22.47;;;16.20;99.90;;;;;;4379073;28;660118;-71
2022/09/09 01:28:17;;;;;;;38.80;22.40;;;16.20;99.90;;;;;;4357059;28;661084;-71
2022/09/09 01:31:05;;;;;;;38.10;22.23;;;16.10;99.90;;;;;;4376533;28;659958;-70
2022/09/09 01:33:52;;;;;;;37.07;21.30;;;16.20;99.90;;;;;;4401759;28;660965;-70
2022/09/09 01:36:42;;;;;;;35.60;21.23;;;16.10;99.90;;;;;;4396600;28;659688;-70
2022/09/09 01:39:29;;;;;;;35.83;22.20;;;16.10;99.90;;;;;;4406425;28;660615;-71
2022/09/09 01:42:16;;;;;;;32.67;19.90;;;16.10;99.90;;;;;;4383124;28;659727;-71
2022/09/09 01:45:06;;;;;;;31.77;19.77;;;16.20;99.90;;;;;;4400048;28;660569;-71
2022/09/09 01:47:54;;;;;;;34.57;19.43;;;16.20;99.90;;;;;;4380937;28;661030;-71
2022/09/09 01:50:41;;;;;;;29.77;18.83;;;16.10;99.90;;;;;;4381802;28;660090;-71
2022/09/09 01:53:28;;;;;;;30.57;18.70;;;16.10;99.90;;;;;;4401556;28;661068;-72
2022/09/09 01:56:36;;;;;;;31.53;19.90;;;16.10;99.90;;;;;;4388331;28;659747;-70
2022/09/09 01:59:37;;;;;;;33.63;20.37;;;16.10;99.90;;;;;;4377587;28;660036;-71
2022/09/09 02:02:27;;;;;;;34.60;19.50;;;16.10;99.90;;;;;;4379251;28;660719;-71
2022/09/09 02:05:21;;;;;;;37.77;23.23;;;16.00;99.90;;;;;;4381689;28;659206;-71
2022/09/09 02:08:08;;;;;;;39.83;21.33;;;16.10;99.90;;;;;;4380638;28;661100;-71
2022/09/09 02:10:57;;;;;;;42.07;25.27;;;16.10;99.90;;;;;;4381281;28;661159;-69
2022/09/09 02:13:45;;;;;;;45.53;25.27;;;16.00;99.90;;;;;;4401331;28;660452;-71
2022/09/09 02:16:34;;;;;;;46.97;26.83;;;16.10;99.90;;;;;;4377520;28;660630;-71
2022/09/09 02:19:25;;;;;;;46.00;25.10;;;15.90;99.90;;;;;;4382783;28;659927;-70
2022/09/09 02:22:12;;;;;;;54.77;28.47;;;16.00;99.90;;;;;;4378606;28;660447;-71
2022/09/09 02:24:59;;;;;;;56.57;30.37;;;16.00;99.90;;;;;;4405584;28;660655;-71
2022/09/09 02:27:47;;;;;;;56.60;30.47;;;15.90;99.90;;;;;;4379035;28;659908;-71
2022/09/09 02:30:34;;;;;;;63.33;32.57;;;16.00;99.90;;;;;;4402675;28;660151;-70
2022/09/09 02:33:22;;;;;;;62.47;32.40;;;15.90;99.90;;;;;;4387291;28;659583;-71
2022/09/09 02:36:11;;;;;;;55.07;29.67;;;15.90;99.90;;;;;;4409509;28;660433;-71
2022/09/09 02:38:58;;;;;;;65.00;32.00;;;15.90;99.90;;;;;;4380275;28;660097;-71
2022/09/09 02:41:45;;;;;;;59.23;31.07;;;16.00;99.90;;;;;;4374288;28;659893;-69
2022/09/09 02:44:32;;;;;;;64.67;31.47;;;15.90;99.90;;;;;;4394256;28;660899;-71
2022/09/09 02:47:28;;;;;;;60.47;29.30;;;15.90;99.90;;;;;;4389227;28;660122;-71
2022/09/09 02:50:17;;;;;;;60.90;31.17;;;15.80;99.90;;;;;;4382559;28;660519;-69
2022/09/09 02:53:11;;;;;;;57.27;29.73;;;15.80;99.90;;;;;;4388937;28;659724;-71
2022/09/09 02:55:59;;;;;;;57.60;28.87;;;15.80;99.90;;;;;;4355132;28;659921;-71
2022/09/09 02:58:46;;;;;;;56.73;27.57;;;15.80;99.90;;;;;;4369437;28;659927;-72
2022/09/09 03:01:33;;;;;;;55.00;29.07;;;15.80;99.90;;;;;;4390646;28;660344;-71
2022/09/09 03:04:21;;;;;;;63.90;30.30;;;15.70;99.90;;;;;;4371264;28;660353;-70
2022/09/09 03:07:08;;;;;;;59.57;31.83;;;15.70;99.90;;;;;;4393248;28;660712;-71
2022/09/09 03:09:56;;;;;;;64.20;32.50;;;15.70;99.90;;;;;;4374055;28;659761;-69
2022/09/09 03:12:44;;;;;;;60.50;32.37;;;15.70;99.90;;;;;;4387592;28;659627;-71
2022/09/09 03:15:31;;;;;;;62.20;32.27;;;15.60;99.90;;;;;;4370352;28;660098;-70
2022/09/09 03:18:18;;;;;;;60.30;30.73;;;15.70;99.90;;;;;;4389859;28;661643;-71
2022/09/09 03:21:06;;;;;;;67.47;33.53;;;15.70;99.90;;;;;;4367607;28;659506;-70
2022/09/09 03:23:53;;;;;;;59.83;32.33;;;15.70;99.90;;;;;;4388798;28;659652;-70
2022/09/09 03:26:44;;;;;;;61.80;32.93;;;15.80;99.90;;;;;;4368086;28;660228;-70
2022/09/09 03:29:31;;;;;;;68.07;35.65;;;15.70;99.90;;;;;;4358864;28;659664;-71
2022/09/09 03:32:18;;;;;;;71.03;38.40;;;15.70;99.90;;;;;;4393552;28;660833;-71
2022/09/09 03:35:06;;;;;;;62.40;32.97;;;15.70;99.90;;;;;;4369472;28;659437;-70
2022/09/09 03:37:54;;;;;;;52.80;30.87;;;15.70;99.90;;;;;;4387661;28;660098;-71
2022/09/09 03:40:50;;;;;;;55.53;30.10;;;15.70;99.90;;;;;;4378838;28;660209;-71
2022/09/09 03:43:38;;;;;;;50.67;29.43;;;15.60;99.90;;;;;;4357679;28;660396;-71
2022/09/09 03:46:26;;;;;;;49.83;28.08;;;15.50;99.90;;;;;;4385445;28;659593;-69
2022/09/09 03:49:13;;;;;;;59.13;29.57;;;15.50;99.90;;;;;;4407393;28;660358;-71
2022/09/09 03:52:00;;;;;;;55.57;29.67;;;15.40;99.90;;;;;;4385422;28;660274;-70
2022/09/09 03:54:48;;;;;;;52.63;28.87;;;15.50;99.90;;;;;;4393071;28;661760;-71
2022/09/09 03:57:35;;;;;;;46.70;27.20;;;15.50;99.90;;;;;;4396509;28;661115;-70
2022/09/09 04:00:24;;;;;;;52.37;28.17;;;15.50;99.90;;;;;;4407638;28;661460;-71
2022/09/09 04:03:11;;;;;;;43.73;26.40;;;15.50;99.90;;;;;;4385086;28;659831;-71
2022/09/09 04:06:00;;;;;;;43.30;24.53;;;15.60;99.90;;;;;;4403903;28;660405;-71
2022/09/09 04:08:48;;;;;;;44.37;25.17;;;15.60;99.90;;;;;;4380876;28;661216;-72
2022/09/09 04:11:36;;;;;;;49.30;25.63;;;15.60;99.90;;;;;;4382996;28;659618;-69
2022/09/09 04:14:28;;;;;;;44.13;25.70;;;15.60;99.90;;;;;;4403760;28;660115;-72
2022/09/09 04:17:17;;;;;;;39.77;24.50;;;15.60;99.90;;;;;;4383946;28;659598;-69
2022/09/09 04:20:04;;;;;;;43.73;24.77;;;15.50;99.90;;;;;;4398652;28;660322;-71
2022/09/09 04:22:51;;;;;;;39.53;23.80;;;15.50;99.90;;;;;;4381491;28;659808;-72
2022/09/09 04:25:38;;;;;;;42.00;23.97;;;15.50;99.90;;;;;;4407458;28;660026;-71
2022/09/09 04:28:26;;;;;;;42.10;25.23;;;15.50;99.90;;;;;;4384817;28;659633;-71
2022/09/09 04:31:17;;;;;;;41.37;24.43;;;15.50;99.90;;;;;;4401474;28;660825;-72
2022/09/09 04:34:06;;;;;;;46.37;24.53;;;15.50;99.90;;;;;;4380111;28;659803;-71
2022/09/09 04:36:53;;;;;;;49.53;26.37;;;15.50;99.90;;;;;;4377035;28;661366;-70
2022/09/09 04:39:40;;;;;;;56.70;25.77;;;15.50;99.90;;;;;;4385659;28;659827;-70
2022/09/09 04:42:27;;;;;;;40.00;23.17;;;15.50;99.90;;;;;;4409154;28;659977;-72
2022/09/09 04:45:14;;;;;;;44.23;25.03;;;15.50;99.90;;;;;;4401896;28;660757;-72
2022/09/09 04:48:02;;;;;;;43.67;24.87;;;15.40;99.90;;;;;;4380799;28;660472;-72
2022/09/09 04:50:58;;;;;;;48.33;26.70;;;15.50;99.90;;;;;;4402748;28;660435;-72
2022/09/09 04:53:46;;;;;;;53.00;27.77;;;15.40;99.90;;;;;;4370104;28;659954;-69
2022/09/09 04:56:33;;;;;;;49.30;26.87;;;15.50;99.90;;;;;;4400576;28;660278;-71
2022/09/09 04:59:21;;;;;;;51.60;28.13;;;15.50;99.90;;;;;;4389229;28;659654;-71
2022/09/09 05:02:08;;;;;;;54.77;27.20;;;15.50;99.90;;;;;;4405265;28;660797;-72
2022/09/09 05:04:56;;;;;;;59.23;30.57;;;15.50;99.90;;;;;;4383356;28;660096;-70
2022/09/09 05:07:45;;;;;;;57.20;30.03;;;15.60;99.90;;;;;;4399849;28;660821;-71
2022/09/09 05:10:32;;;;;;;58.28;30.08;;;15.70;99.90;;;;;;4382279;28;662257;-71
2022/09/09 05:13:20;;;;;;;53.43;29.43;;;15.70;99.90;;;;;;4402630;28;659387;-71
2022/09/09 05:16:10;;;;;;;52.37;29.60;;;15.60;99.90;;;;;;4355737;28;660191;-71
2022/09/09 05:18:58;;;;;;;49.07;28.37;;;15.60;99.90;;;;;;4374750;28;660964;-71
2022/09/09 05:21:46;;;;;;;43.23;25.33;;;15.60;99.90;;;;;;4378968;28;659786;-70
2022/09/09 05:24:34;;;;;;;42.70;25.27;;;15.60;99.90;;;;;;4405128;28;660311;-71
2022/09/09 05:27:22;;;;;;;42.07;24.70;;;15.70;99.90;;;;;;4376305;28;659570;-70
2022/09/09 05:30:10;;;;;;;39.70;24.53;;;15.80;99.90;;;;;;4397974;28;660184;-70
2022/09/09 05:32:57;;;;;;;40.87;24.60;;;15.80;99.90;;;;;;4380830;28;660725;-70
2022/09/09 05:35:44;;;;;;;38.13;23.33;;;15.80;99.90;;;;;;4400362;28;659525;-71
2022/09/09 05:38:32;;;;;;;30.30;17.57;;;16.00;99.90;;;;;;4381112;28;659838;-69
2022/09/09 05:41:20;;;;;;;28.60;16.60;;;16.00;99.90;;;;;;4400363;28;660079;-70
2022/09/09 05:44:07;;;;;;;34.47;19.00;;;15.90;99.90;;;;;;4379030;28;659915;-70
2022/09/09 05:46:55;;;;;;;36.37;22.07;;;15.90;99.90;;;;;;4398079;28;659992;-70
2022/09/09 05:49:42;;;;;;;33.17;21.10;;;15.80;99.90;;;;;;4404109;28;659609;-71
2022/09/09 05:52:29;;;;;;;37.40;20.97;;;15.90;99.90;;;;;;4399793;28;660234;-71
2022/09/09 05:55:17;;;;;;;34.73;21.30;;;16.00;99.90;;;;;;4386889;28;660098;-71
2022/09/09 05:58:05;;;;;;;40.07;21.97;;;16.00;99.90;;;;;;4409499;28;660342;-72
2022/09/09 06:00:55;;;;;;;40.33;23.60;;;16.10;99.90;;;;;;4377580;28;660303;-69
2022/09/09 06:03:43;;;;;;;42.97;24.07;;;16.00;99.90;;;;;;4383874;28;660103;-71
2022/09/09 06:06:36;;;;;;;41.67;24.13;;;16.00;99.90;;;;;;4396226;28;660169;-70
2022/09/09 06:09:23;;;;;;;44.10;26.33;;;16.00;99.90;;;;;;4379923;28;659686;-71
2022/09/09 06:12:10;;;;;;;44.23;26.63;;;16.10;99.90;;;;;;4385974;28;659616;-69
2022/09/09 06:14:59;;;;;;;45.58;26.88;;;16.30;99.90;;;;;;4408044;28;661452;-71
2022/09/09 06:17:46;;;;;;;41.20;26.80;;;16.50;99.90;;;;;;4385476;28;659915;-71
2022/09/09 06:20:34;;;;;;;46.23;29.33;;;16.70;99.90;;;;;;4403016;28;660894;-71
2022/09/09 06:23:21;;;;;;;48.33;29.33;;;16.50;99.90;;;;;;4386055;28;659363;-71
2022/09/09 06:26:10;;;;;;;47.67;29.77;;;16.50;99.90;;;;;;4405902;28;660441;-71
2022/09/09 06:28:57;;;;;;;51.37;31.10;;;16.70;99.90;;;;;;4383133;28;660483;-70
2022/09/09 06:31:47;;;;;;;51.40;35.10;;;16.60;99.90;;;;;;4400991;28;659579;-70
2022/09/09 06:34:35;;;;;;;55.07;35.33;;;16.50;99.90;;;;;;4376016;28;659930;-71
2022/09/09 06:37:23;;;;;;;53.27;35.83;;;16.50;99.90;;;;;;4378970;28;660340;-71
2022/09/09 06:40:11;;;;;;;50.93;34.60;;;16.50;99.90;;;;;;4385659;28;659763;-71
2022/09/09 06:43:00;;;;;;;50.07;33.77;;;16.70;99.90;;;;;;4402816;28;660880;-71
2022/09/09 06:45:54;;;;;;;45.30;30.33;;;16.90;99.90;;;;;;4376281;28;660579;-71
2022/09/09 06:48:44;;;;;;;45.00;29.20;;;17.00;99.90;;;;;;4356779;28;660349;-71
2022/09/09 06:51:32;;;;;;;46.28;29.38;;;17.10;99.90;;;;;;4382859;28;659875;-71
2022/09/09 06:54:19;;;;;;;41.93;29.13;;;17.50;99.90;;;;;;4401182;28;659869;-71
2022/09/09 06:57:07;;;;;;;43.20;25.63;;;17.80;99.90;;;;;;4379300;28;659546;-71
2022/09/09 06:59:55;;;;;;;35.73;25.83;;;18.00;99.90;;;;;;4399754;28;659588;-71
2022/09/09 07:02:42;;;;;;;32.60;23.43;;;18.20;99.90;;;;;;4393693;28;659452;-70
2022/09/09 07:05:31;;;;;;;33.17;22.67;;;18.40;99.90;;;;;;4399346;28;661041;-71
2022/09/09 07:08:18;;;;;;;29.10;20.10;;;18.50;99.90;;;;;;4384415;28;660482;-70
2022/09/09 07:11:06;;;;;;;31.67;20.97;;;18.90;99.90;;;;;;4389872;28;659631;-69
2022/09/09 07:13:53;;;;;;;31.10;19.03;;;19.10;99.90;;;;;;4405105;28;660765;-71
2022/09/09 07:16:40;;;;;;;30.00;17.20;;;19.00;99.90;;;;;;4388179;28;659445;-69
2022/09/09 07:19:27;;;;;;;19.27;13.57;;;18.80;99.90;;;;;;4409470;28;659560;-71
2022/09/09 07:22:16;;;;;;;15.40;11.07;;;18.70;99.90;;;;;;4403154;28;659604;-71
2022/09/09 07:25:03;;;;;;;17.83;10.83;;;18.20;99.90;;;;;;4379646;28;659773;-71
2022/09/09 07:27:51;;;;;;;14.80;10.10;;;18.50;99.90;;;;;;4389686;28;660155;-70
2022/09/09 07:30:38;;;;;;;13.70;8.93;;;18.80;99.90;;;;;;4403052;28;660640;-70
2022/09/09 07:33:26;;;;;;;23.77;9.67;;;18.70;99.90;;;;;;4386585;28;659076;-70
2022/09/09 07:36:14;;;;;;;16.83;9.47;;;18.50;99.90;;;;;;4408720;28;659121;-70
2022/09/09 07:39:04;;;;;;;11.53;8.57;;;18.80;99.90;;;;;;4385438;28;658999;-71
2022/09/09 07:41:53;;;;;;;12.00;7.37;;;18.80;99.90;;;;;;4384033;28;659036;-71
2022/09/09 07:44:41;;;;;;;16.13;8.70;;;18.80;99.90;;;;;;4364849;28;659134;-69
2022/09/09 07:47:28;;;;;;;11.50;9.47;;;19.30;99.90;;;;;;4402750;28;659957;-70
2022/09/09 07:50:16;;;;;;;17.27;8.63;;;19.70;99.90;;;;;;4390939;28;658730;-70
2022/09/09 07:53:04;;;;;;;10.27;7.03;;;19.80;99.90;;;;;;4402824;28;659341;-70
2022/09/09 07:55:53;;;;;;;9.20;5.30;;;19.80;99.90;;;;;;4387715;28;658464;-70
2022/09/09 07:58:40;;;;;;;8.53;5.50;;;19.30;99.90;;;;;;4386783;28;657977;-69
2022/09/09 08:01:29;;;;;;;8.67;5.20;;;18.70;99.90;;;;;;4406223;28;658674;-70
2022/09/09 08:04:18;;;;;;;11.57;4.53;;;19.30;99.90;;;;;;4381765;28;659872;-69
2022/09/09 08:07:05;;;;;;;8.73;4.43;;;19.60;99.90;;;;;;4392781;28;659166;-69
2022/09/09 08:09:54;;;;;;;11.70;4.60;;;19.60;99.90;;;;;;4404266;28;658523;-70
2022/09/09 08:12:42;;;;;;;8.33;5.30;;;20.10;99.90;;;;;;4382927;28;658912;-70
2022/09/09 08:15:30;;;;;;;7.73;4.47;;;19.80;99.90;;;;;;4404698;28;658473;-69
2022/09/09 08:18:18;;;;;;;5.03;3.50;;;20.00;99.90;;;;;;4405978;28;659125;-70
2022/09/09 08:21:11;;;;;;;7.87;4.23;;;20.30;99.90;;;;;;4398083;28;657835;-70
2022/09/09 08:23:59;;;;;;;8.10;3.60;;;20.50;99.90;;;;;;4381984;28;658624;-71
2022/09/09 08:26:48;;;;;;;4.73;3.60;;;20.60;99.90;;;;;;4385847;28;657950;-68
2022/09/09 08:29:37;;;;;;;5.77;3.83;;;21.70;99.90;;;;;;4383547;28;657799;-67
2022/09/09 08:32:26;;;;;;;5.03;3.90;;;22.10;99.90;;;;;;4406181;28;658190;-67
2022/09/09 08:35:13;;;;;;;6.60;3.30;;;21.90;99.90;;;;;;4382354;28;659227;-67
2022/09/09 08:38:00;;;;;;;6.43;3.90;;;21.90;99.90;;;;;;4390693;28;657954;-66
2022/09/09 08:40:49;;;;;;;5.20;2.63;;;21.80;99.90;;;;;;4409125;28;657765;-68
2022/09/09 08:43:36;;;;;;;4.20;2.87;;;21.50;99.90;;;;;;4384384;28;657938;-68
2022/09/09 08:46:26;;;;;;;3.93;2.60;;;20.70;99.90;;;;;;4399523;28;659028;-67
2022/09/09 08:49:27;;;;;;;3.27;2.80;;;20.50;99.90;;;;;;4380468;28;658854;-68
2022/09/09 08:52:18;;;;;;;3.47;2.50;;;21.20;99.90;;;;;;4377967;28;657935;-68
2022/09/09 08:55:14;;;;;;;5.27;2.50;;;21.90;99.90;;;;;;4359815;28;658634;-68
2022/09/09 08:58:05;;;;;;;6.17;3.13;;;22.40;99.90;;;;;;4384733;28;657899;-67
2022/09/09 09:01:02;;;;;;;3.47;2.60;;;22.40;99.90;;;;;;4382917;28;658071;-67
2022/09/09 09:03:53;;;;;;;3.43;2.10;;;22.40;99.90;;;;;;4375631;28;657863;-67
2022/09/09 09:06:46;;;;;;;4.10;2.20;;;22.20;99.90;;;;;;4356862;28;658526;-68
2022/09/09 09:09:36;;;;;;;2.67;2.10;;;22.50;99.90;;;;;;4377571;28;658718;-67
2022/09/09 09:12:24;;;;;;;3.37;2.23;;;22.70;99.90;;;;;;4379966;28;657207;-68
2022/09/09 09:15:16;;;;;;;4.07;2.70;;;23.10;99.90;;;;;;4383550;28;658056;-67
2022/09/09 09:18:04;;;;;;;4.90;2.53;;;22.70;99.90;;;;;;4377787;28;657914;-68
2022/09/09 09:20:59;;;;;;;3.27;2.00;;;23.00;99.90;;;;;;4381118;28;657678;-67
2022/09/09 09:23:48;;;;;;;4.33;1.60;;;23.40;99.90;;;;;;4358023;28;657925;-67
2022/09/09 09:26:36;;;;;;;3.27;1.60;;;22.70;99.90;;;;;;4381424;28;657448;-67
2022/09/09 09:29:24;;;;;;;3.10;1.70;;;22.30;99.90;;;;;;4398951;28;658865;-67
2022/09/09 09:32:13;;;;;;;4.53;1.93;;;22.60;99.90;;;;;;4383734;28;657470;-67
2022/09/09 09:35:04;;;;;;;2.87;1.60;;;21.90;99.90;;;;;;4381595;28;657681;-66
2022/09/09 09:37:52;;;;;;;4.10;1.80;;;21.90;99.90;;;;;;4381853;28;657461;-68
2022/09/09 09:40:50;;;;;;;4.70;1.50;;;22.20;99.90;;;;;;4398250;28;657526;-68
2022/09/09 09:43:38;;;;;;;4.50;1.47;;;22.40;99.90;;;;;;4343516;28;659655;-68
2022/09/09 09:46:26;;;;;;;6.83;1.70;;;22.60;99.90;;;;;;4385158;28;657544;-67
2022/09/09 09:49:13;;;;;;;5.53;1.50;;;22.00;99.90;;;;;;4403486;28;657754;-68
2022/09/09 09:52:02;;;;;;;2.80;1.77;;;22.50;99.90;;;;;;4381794;28;657420;-67
2022/09/09 09:54:51;;;;;;;3.27;1.77;;;23.20;99.90;;;;;;4391284;28;658280;-68
2022/09/09 09:57:38;;;;;;;2.37;1.60;;;23.00;99.90;;;;;;4373035;28;657686;-68
2022/09/09 10:00:25;;;;;;;4.27;1.53;;;22.80;99.90;;;;;;4378859;28;657458;-66
2022/09/09 10:03:20;;;;;;;1.97;1.30;;;23.30;99.90;;;;;;4404713;28;657293;-68
2022/09/09 10:06:07;;;;;;;5.30;1.70;;;23.50;99.90;;;;;;4376790;28;657973;-68
2022/09/09 10:08:54;;;;;;;2.27;1.43;;;23.90;99.90;;;;;;4401933;28;657898;-68
2022/09/09 10:11:46;;;;;;;4.43;1.60;;;24.30;99.90;;;;;;4381655;28;658150;-68
2022/09/09 10:14:37;;;;;;;4.73;1.60;;;23.80;99.10;;;;;;4375456;28;658296;-68
2022/09/09 10:17:27;;;;;;;7.80;1.73;;;23.30;99.90;;;;;;4380071;28;657795;-68
2022/09/09 10:20:33;;;;;;;2.83;1.60;;;23.30;99.90;;;;;;4378936;28;658974;-68
2022/09/09 10:23:28;;;;;;;5.55;1.30;;;24.10;99.90;;;;;;4363696;28;657873;-67
2022/09/09 10:26:23;;;;;;;2.42;1.20;;;24.90;99.90;;;;;;4357510;28;657476;-67
2022/09/09 10:29:37;;;;;;;4.35;0.98;;;25.20;97.60;;;;;;4372658;28;657686;-67
2022/09/09 10:32:37;;;;;;;2.67;1.20;;;25.30;91.50;;;;;;4378077;28;657385;-68
2022/09/09 10:35:28;;;;;;;2.10;1.25;;;25.70;97.40;;;;;;4378400;28;657749;-67
2022/09/09 10:38:17;;;;;;;3.88;1.20;;;25.80;90.90;;;;;;4348099;28;658412;-67
2022/09/09 10:41:13;;;;;;;1.98;1.20;;;25.80;90.10;;;;;;4380866;28;658285;-67
2022/09/09 10:44:18;;;;;;;3.00;1.40;;;25.40;93.60;;;;;;4365186;28;657252;-67
2022/09/09 10:47:25;;;;;;;1.27;1.10;;;25.20;88.20;;;;;;4337227;28;657708;-67
2022/09/09 10:50:20;;;;;;;2.47;1.35;;;24.70;93.00;;;;;;4360007;28;657912;-67
2022/09/09 10:53:14;;;;;;;2.20;1.33;;;24.50;90.10;;;;;;4342456;28;658841;-67
2022/09/09 10:56:04;;;;;;;1.30;1.20;;;24.20;96.50;;;;;;4369320;28;657839;-67
2022/09/09 10:58:52;;;;;;;4.17;1.40;;;24.00;95.80;;;;;;4369565;28;657720;-68
2022/09/09 11:01:44;;;;;;;1.45;1.05;;;25.30;96.80;;;;;;4388293;28;657648;-67
2022/09/09 11:04:34;;;;;;;1.67;1.00;;;25.30;92.90;;;;;;4370419;28;657925;-68
2022/09/09 11:07:26;;;;;;;2.80;1.10;;;26.20;94.50;;;;;;4356980;28;658588;-68
2022/09/09 11:10:18;;;;;;;3.17;1.40;;;26.50;92.20;;;;;;4361605;28;658282;-67
2022/09/09 11:13:09;;;;;;;1.75;1.10;;;26.00;80.70;;;;;;4343532;28;658148;-67
2022/09/09 11:16:00;;;;;;;2.90;1.40;;;25.00;90.70;;;;;;4368907;28;658315;-67
2022/09/09 11:18:47;;;;;;;1.50;1.10;;;24.90;93.20;;;;;;4365421;28;657692;-68
2022/09/09 11:21:37;;;;;;;1.02;0.95;;;25.50;90.00;;;;;;4385740;28;657820;-68
2022/09/09 11:24:27;;;;;;;3.55;1.20;;;25.80;91.80;;;;;;4367211;28;657734;-67
2022/09/09 11:27:16;;;;;;;4.50;1.90;;;25.30;90.80;;;;;;4386265;28;658292;-68
2022/09/09 11:30:16;;;;;;;3.60;1.27;;;24.50;91.10;;;;;;4366440;28;658748;-67
2022/09/09 11:33:31;;;;;;;2.85;1.20;;;24.60;86.50;;;;;;4365853;28;658202;-67
2022/09/09 11:36:30;;;;;;;3.33;1.27;;;24.10;92.10;;;;;;4363559;28;658535;-68
2022/09/09 11:39:47;;;;;;;3.13;1.23;;;24.30;92.20;;;;;;4344367;28;657779;-68
2022/09/09 11:42:34;;;;;;;2.60;1.40;;;24.40;83.50;;;;;;4383270;28;657966;-68
2022/09/09 11:45:23;;;;;;;1.38;1.27;;;23.60;88.60;;;;;;4387989;28;658595;-68
2022/09/09 11:48:24;;;;;;;3.38;1.50;;;23.80;91.00;;;;;;4389206;28;657576;-68
2022/09/09 11:51:12;;;;;;;1.90;1.30;;;22.60;92.30;;;;;;4386852;28;657564;-67
2022/09/09 11:54:01;;;;;;;2.67;1.03;;;23.50;90.80;;;;;;4406899;28;658248;-67
2022/09/09 11:56:49;;;;;;;1.87;1.00;;;24.30;91.50;;;;;;4383698;28;658922;-68
2022/09/09 11:59:37;;;;;;;3.13;1.20;;;24.90;91.20;;;;;;4381595;28;657642;-67
2022/09/09 12:02:24;;;;;;;1.93;1.20;;;24.80;87.10;;;;;;4401059;28;657686;-67
2022/09/09 12:05:13;;;;;;;2.73;1.13;;;24.30;87.10;;;;;;4385517;28;657305;-67
2022/09/09 12:08:01;;;;;;;4.70;1.40;;;23.50;90.60;;;;;;4381615;28;658103;-67
2022/09/09 12:10:54;;;;;;;5.73;1.40;;;24.30;90.70;;;;;;4404085;28;657636;-67
2022/09/09 12:13:52;;;;;;;4.97;1.10;;;23.70;90.60;;;;;;4386458;28;657630;-67
2022/09/09 12:16:40;;;;;;;1.73;1.10;;;23.60;92.10;;;;;;4380906;28;658025;-67
2022/09/09 12:19:27;;;;;;;1.58;1.20;;;24.20;91.60;;;;;;4384331;28;658849;-68
2022/09/09 12:22:20;;;;;;;1.48;1.15;;;24.70;87.00;;;;;;4399973;28;657683;-68
2022/09/09 12:25:11;;;;;;;2.70;1.30;;;23.90;90.10;;;;;;4354751;28;658036;-68
2022/09/09 12:28:06;;;;;;;3.75;1.05;;;24.40;91.20;;;;;;4382883;28;659155;-68
2022/09/09 12:30:57;;;;;;;1.83;0.95;;;24.60;91.40;;;;;;4381879;28;657512;-68
2022/09/09 12:33:47;;;;;;;1.33;1.23;;;24.40;88.80;;;;;;4378826;28;658766;-68
2022/09/09 12:36:34;;;;;;;2.03;1.10;;;25.10;90.70;;;;;;4375575;28;657812;-67
2022/09/09 12:39:28;;;;;;;1.98;1.08;;;24.50;82.80;;;;;;4383820;28;657417;-67
2022/09/09 12:42:18;;;;;;;1.35;1.10;;;24.50;85.30;;;;;;4354828;28;658032;-67
2022/09/09 12:45:16;;;;;;;2.90;1.25;;;23.60;83.40;;;;;;4387816;28;658634;-66
2022/09/09 12:48:06;;;;;;;1.13;1.02;;;23.20;87.50;;;;;;4378943;28;658216;-67
2022/09/09 12:50:53;;;;;;;1.25;1.02;;;23.00;88.20;;;;;;4381263;28;659020;-68
2022/09/09 12:53:40;;;;;;;1.98;0.90;;;23.50;91.70;;;;;;4390597;28;658698;-68
2022/09/09 12:56:29;;;;;;;2.55;1.05;;;24.00;90.30;;;;;;4407442;28;657305;-68
2022/09/09 12:59:24;;;;;;;1.42;0.90;;;24.30;84.30;;;;;;4387807;28;657640;-68
2022/09/09 13:02:20;;;;;;;2.40;1.30;;;24.50;84.30;;;;;;4383228;28;657851;-69
2022/09/09 13:05:14;;;;;;;1.58;1.05;;;25.00;85.80;;;;;;4358042;28;658004;-68
2022/09/09 13:08:02;;;;;;;2.20;1.15;;;24.50;83.30;;;;;;4380118;28;657965;-66
2022/09/09 13:10:52;;;;;;;4.40;1.10;;;24.60;79.30;;;;;;4401238;28;658032;-68
2022/09/09 13:13:42;;;;;;;1.55;1.00;;;25.30;84.10;;;;;;4377377;28;658506;-68
2022/09/09 13:16:31;;;;;;;1.33;1.20;;;25.10;80.60;;;;;;4377963;28;657647;-67
2022/09/09 13:19:18;;;;;;;2.08;1.30;;;24.70;79.40;;;;;;4401555;28;658520;-67
2022/09/09 13:22:14;;;;;;;2.25;1.15;;;24.30;82.00;;;;;;4381071;28;658258;-67
2022/09/09 13:25:03;;;;;;;1.65;1.10;;;24.20;87.40;;;;;;4378838;28;657609;-67
2022/09/09 13:27:58;;;;;;;2.63;1.17;;;24.00;88.30;;;;;;4387949;28;657679;-66
2022/09/09 13:30:49;;;;;;;2.30;1.20;;;22.70;91.70;;;;;;4361546;28;657480;-67
2022/09/09 13:33:36;;;;;;;6.47;1.17;;;22.60;94.70;;;;;;4380449;28;657478;-66
2022/09/09 13:36:29;;;;;;;1.20;1.10;;;23.00;94.40;;;;;;4400499;28;658859;-68
2022/09/09 13:39:18;;;;;;;1.43;1.10;;;22.80;93.90;;;;;;4359577;28;657615;-68
2022/09/09 13:42:06;;;;;;;1.93;1.23;;;22.50;94.80;;;;;;4381723;28;657520;-68
2022/09/09 13:44:54;;;;;;;2.23;1.30;;;22.70;93.60;;;;;;4402243;28;658195;-68
2022/09/09 13:47:41;;;;;;;5.80;1.20;;;22.80;94.80;;;;;;4381508;28;657619;-68
2022/09/09 13:50:29;;;;;;;4.73;1.30;;;22.90;95.40;;;;;;4386844;28;658641;-67
2022/09/09 13:53:16;;;;;;;2.00;1.20;;;23.60;95.80;;;;;;4380773;28;657524;-68
2022/09/09 13:56:05;;;;;;;1.90;1.30;;;23.90;92.90;;;;;;4404741;28;658128;-68
2022/09/09 13:58:52;;;;;;;2.63;1.23;;;24.20;94.80;;;;;;4381396;28;658614;-66
2022/09/09 14:01:39;;;;;;;3.77;1.30;;;24.40;90.80;;;;;;4400737;28;657552;-66
2022/09/09 14:04:26;;;;;;;4.30;1.47;;;24.20;93.30;;;;;;4383328;28;659580;-67
2022/09/09 14:07:13;;;;;;;1.90;1.30;;;24.10;92.80;;;;;;4402256;28;658534;-66
2022/09/09 14:10:01;;;;;;;3.17;1.20;;;24.00;93.30;;;;;;4384268;28;657564;-66
2022/09/09 14:12:49;;;;;;;3.20;1.50;;;24.50;93.90;;;;;;4406558;28;657861;-67
2022/09/09 14:15:36;;;;;;;2.23;1.50;;;24.30;90.80;;;;;;4379076;28;658029;-67
2022/09/09 14:18:25;;;;;;;2.43;1.20;;;24.00;90.30;;;;;;4401739;28;659050;-67
2022/09/09 14:21:12;;;;;;;2.50;1.30;;;24.40;89.40;;;;;;4378185;28;658884;-68